Time;durP1;ratioP1;P1;durP2;ratioP2;P2;SDS_P1;SDS_P2;PMS_P1;PMS_P2;Temp;Humidity;BMP_temperature;BMP_pressure;BME280_temperature;BME280_humidity;BME280_pressure;Samples;Min_cycle;Max_cycle;Signal;HPM_P1;HPM_P2
2021/06/23 00:00:34;;;;;;;;;;;28.00;59.90;;;;;;5155520;27;19927;-55
2021/06/23 00:03:02;;;;;;;;;;;28.00;59.90;;;;;;5152967;27;19976;-56
2021/06/23 00:05:29;;;;;;;;;;;28.00;60.00;;;;;;5153417;27;19963;-54
2021/06/23 00:07:56;;;;;;;;;;;28.00;59.90;;;;;;5154331;27;19972;-56
2021/06/23 00:10:23;;;;;;;;;;;28.00;60.00;;;;;;5152673;27;19923;-56
2021/06/23 00:12:51;;;;;;;;;;;28.00;60.00;;;;;;5152197;27;19923;-52
2021/06/23 00:15:19;;;;;;;;;;;28.00;60.00;;;;;;5152235;27;20394;-54
2021/06/23 00:17:46;;;;;;;;;;;28.00;60.00;;;;;;5152280;27;19923;-54
2021/06/23 00:20:14;;;;;;;;;;;28.00;60.00;;;;;;5151587;27;19923;-56
2021/06/23 00:22:41;;;;;;;;;;;28.00;60.00;;;;;;5151973;27;19971;-55
2021/06/23 00:25:08;;;;;;;;;;;28.00;60.00;;;;;;5152184;27;19930;-55
2021/06/23 00:27:35;;;;;;;;;;;28.00;60.00;;;;;;5143147;27;20375;-55
2021/06/23 00:30:03;;;;;;;;;;;28.00;60.00;;;;;;5144290;27;20027;-55
2021/06/23 00:32:31;;;;;;;;;;;28.00;60.00;;;;;;5154571;27;19965;-54
2021/06/23 00:34:58;;;;;;;;;;;28.00;60.00;;;;;;5153423;27;19927;-57
2021/06/23 00:37:25;;;;;;;;;;;28.00;60.00;;;;;;5153291;27;20443;-53
2021/06/23 00:39:52;;;;;;;;;;;28.00;60.00;;;;;;5153772;27;19999;-53
2021/06/23 00:42:19;;;;;;;;;;;28.00;60.10;;;;;;5152633;27;20401;-55
2021/06/23 00:44:46;;;;;;;;;;;28.00;60.10;;;;;;5148162;27;19923;-55
2021/06/23 00:47:14;;;;;;;;;;;28.00;60.10;;;;;;5136036;27;19927;-56
2021/06/23 00:49:41;;;;;;;;;;;28.00;60.10;;;;;;5133520;27;19927;-56
2021/06/23 00:52:08;;;;;;;;;;;28.00;60.10;;;;;;5136235;27;19996;-55
2021/06/23 00:54:35;;;;;;;;;;;28.00;60.10;;;;;;5153663;27;19962;-54
2021/06/23 00:57:06;;;;;;;;;;;28.00;60.10;;;;;;5134314;27;19923;-55
2021/06/23 00:59:33;;;;;;;;;;;28.00;60.10;;;;;;5153599;27;19931;-54
2021/06/23 01:02:02;;;;;;;;;;;28.00;60.20;;;;;;5152476;27;19927;-54
2021/06/23 01:04:30;;;;;;;;;;;28.00;60.10;;;;;;5153190;27;19987;-57
2021/06/23 01:06:57;;;;;;;;;;;28.00;60.20;;;;;;5152061;27;19923;-56
2021/06/23 01:09:25;;;;;;;;;;;28.00;60.20;;;;;;5151396;27;19923;-55
2021/06/23 01:12:10;;;;;;;;;;;28.00;60.20;;;;;;5151494;27;19975;-56
2021/06/23 01:14:40;;;;;;;;;;;28.00;60.20;;;;;;5153238;27;19967;-54
2021/06/23 01:17:08;;;;;;;;;;;28.00;60.20;;;;;;5152051;27;19978;-54
2021/06/23 01:19:41;;;;;;;;;;;28.00;60.20;;;;;;5137101;27;19923;-53
2021/06/23 01:22:09;;;;;;;;;;;28.00;60.20;;;;;;5150217;27;19923;-55
2021/06/23 01:24:36;;;;;;;;;;;28.00;60.20;;;;;;5151924;27;19968;-56
2021/06/23 01:27:03;;;;;;;;;;;28.00;60.20;;;;;;5138027;27;20318;-56
2021/06/23 01:29:29;;;;;;;;;;;28.00;60.30;;;;;;5147972;27;19926;-56
2021/06/23 01:31:56;;;;;;;;;;;28.00;60.30;;;;;;5140027;27;19923;-56
2021/06/23 01:34:24;;;;;;;;;;;28.00;60.30;;;;;;5146591;27;19923;-53
2021/06/23 01:36:51;;;;;;;;;;;28.00;60.30;;;;;;5152227;27;20009;-55
2021/06/23 01:39:18;;;;;;;;;;;28.00;60.30;;;;;;5151286;27;20382;-56
2021/06/23 01:41:45;;;;;;;;;;;28.00;60.30;;;;;;5152362;27;20447;-55
2021/06/23 01:44:12;;;;;;;;;;;28.00;60.30;;;;;;5148780;27;20370;-55
2021/06/23 01:46:39;;;;;;;;;;;28.00;60.30;;;;;;5138573;27;19923;-54
2021/06/23 01:49:06;;;;;;;;;;;28.00;60.30;;;;;;5151433;27;19971;-55
2021/06/23 01:51:32;;;;;;;;;;;28.00;60.40;;;;;;5151496;27;20320;-57
2021/06/23 01:53:59;;;;;;;;;;;28.00;60.40;;;;;;5154259;27;19996;-55
2021/06/23 01:56:31;;;;;;;;;;;28.00;60.40;;;;;;5154966;27;19923;-55
2021/06/23 01:58:58;;;;;;;;;;;28.00;60.40;;;;;;5153821;27;19924;-56
2021/06/23 02:01:42;;;;;;;;;;;28.00;60.40;;;;;;5156423;27;19923;-56
2021/06/23 02:04:23;;;;;;;;;;;28.00;60.40;;;;;;5154419;27;20070;-54
2021/06/23 02:06:50;;;;;;;;;;;28.00;60.40;;;;;;5153985;27;19927;-54
2021/06/23 02:09:35;;;;;;;;;;;28.00;60.40;;;;;;5155104;27;19988;-54
2021/06/23 02:12:22;;;;;;;;;;;28.00;60.40;;;;;;5156180;27;20431;-56
2021/06/23 02:14:51;;;;;;;;;;;28.00;60.40;;;;;;5104312;27;20426;-57
2021/06/23 02:17:20;;;;;;;;;;;28.00;60.50;;;;;;5154683;27;19923;-56
2021/06/23 02:19:49;;;;;;;;;;;28.00;60.50;;;;;;5156420;27;19923;-56
2021/06/23 02:22:18;;;;;;;;;;;28.00;60.50;;;;;;5154783;27;19923;-55
2021/06/23 02:24:47;;;;;;;;;;;28.00;60.50;;;;;;5153590;27;20287;-56
2021/06/23 02:27:14;;;;;;;;;;;28.00;60.50;;;;;;5154126;27;19954;-56
2021/06/23 02:29:43;;;;;;;;;;;28.00;60.50;;;;;;5154239;27;19949;-54
2021/06/23 02:32:12;;;;;;;;;;;28.00;60.50;;;;;;5154209;27;19923;-56
2021/06/23 02:34:47;;;;;;;;;;;28.00;60.50;;;;;;5136293;27;19945;-51
2021/06/23 02:37:14;;;;;;;;;;;28.00;60.50;;;;;;5136603;27;20302;-55
2021/06/23 02:39:42;;;;;;;;;;;28.00;60.50;;;;;;5156827;27;19997;-55
2021/06/23 02:42:10;;;;;;;;;;;28.00;60.50;;;;;;5155883;27;19923;-55
2021/06/23 02:44:38;;;;;;;;;;;28.00;60.50;;;;;;5136930;27;20000;-57
2021/06/23 02:47:05;;;;;;;;;;;28.00;60.50;;;;;;5155986;27;19923;-54
2021/06/23 02:49:32;;;;;;;;;;;28.00;60.50;;;;;;5155462;27;19988;-56
2021/06/23 02:52:00;;;;;;;;;;;28.00;60.50;;;;;;5139352;27;19974;-56
2021/06/23 02:54:27;;;;;;;;;;;28.00;60.60;;;;;;5152730;27;19923;-55
2021/06/23 02:56:54;;;;;;;;;;;28.00;60.50;;;;;;5152842;27;19923;-56
2021/06/23 02:59:21;;;;;;;;;;;28.00;60.60;;;;;;5153988;27;19949;-56
2021/06/23 03:01:49;;;;;;;;;;;28.00;60.60;;;;;;5152693;27;19975;-56
2021/06/23 03:04:16;;;;;;;;;;;28.00;60.60;;;;;;5155829;27;20006;-56
2021/06/23 03:06:43;;;;;;;;;;;28.00;60.60;;;;;;5152537;27;19971;-55
2021/06/23 03:09:11;;;;;;;;;;;28.00;60.60;;;;;;5154004;27;19970;-53
2021/06/23 03:11:39;;;;;;;;;;;28.00;60.60;;;;;;5152371;27;19972;-55
2021/06/23 03:14:06;;;;;;;;;;;28.00;60.60;;;;;;5154955;27;19930;-56
2021/06/23 03:16:34;;;;;;;;;;;28.00;60.60;;;;;;5153705;27;19976;-56
2021/06/23 03:19:02;;;;;;;;;;;28.00;60.70;;;;;;5153452;27;19975;-56
2021/06/23 03:21:29;;;;;;;;;;;28.00;60.70;;;;;;5153565;27;19948;-54
2021/06/23 03:23:57;;;;;;;;;;;28.00;60.60;;;;;;5155059;27;19923;-56
2021/06/23 03:26:28;;;;;;;;;;;28.00;60.60;;;;;;5152403;27;20336;-57
2021/06/23 03:28:56;;;;;;;;;;;28.00;60.70;;;;;;5153076;27;20328;-56
2021/06/23 03:31:23;;;;;;;;;;;28.00;60.70;;;;;;5152462;27;19979;-57
2021/06/23 03:33:51;;;;;;;;;;;28.00;60.70;;;;;;5156064;27;19953;-50
2021/06/23 03:36:19;;;;;;;;;;;28.00;60.70;;;;;;5155767;27;20011;-56
2021/06/23 03:38:46;;;;;;;;;;;28.00;60.70;;;;;;5154354;27;20427;-56
2021/06/23 03:41:13;;;;;;;;;;;28.00;60.70;;;;;;5136860;27;19929;-55
2021/06/23 03:43:40;;;;;;;;;;;28.00;60.70;;;;;;5135974;27;19933;-58
2021/06/23 03:46:06;;;;;;;;;;;28.00;60.70;;;;;;5151884;27;19998;-54
2021/06/23 03:48:33;;;;;;;;;;;28.00;60.70;;;;;;5152914;27;20410;-54
2021/06/23 03:51:01;;;;;;;;;;;28.00;60.70;;;;;;5139613;27;19924;-55
2021/06/23 03:53:28;;;;;;;;;;;28.00;60.70;;;;;;5150378;27;19987;-56
2021/06/23 03:55:55;;;;;;;;;;;28.00;60.70;;;;;;5151940;27;19972;-57
2021/06/23 03:58:21;;;;;;;;;;;28.00;60.70;;;;;;5153411;27;20001;-57
2021/06/23 04:00:48;;;;;;;;;;;28.00;60.80;;;;;;5154419;27;19973;-56
2021/06/23 04:03:15;;;;;;;;;;;28.00;60.80;;;;;;5153102;27;19923;-56
2021/06/23 04:05:42;;;;;;;;;;;28.00;60.80;;;;;;5153105;27;19923;-55
2021/06/23 04:08:09;;;;;;;;;;;28.00;60.70;;;;;;5152472;27;19927;-57
2021/06/23 04:10:36;;;;;;;;;;;28.00;60.70;;;;;;5154111;27;19972;-55
2021/06/23 04:13:03;;;;;;;;;;;28.00;60.80;;;;;;5153870;27;20033;-54
2021/06/23 04:15:30;;;;;;;;;;;28.00;60.70;;;;;;5151734;27;19927;-56
2021/06/23 04:17:58;;;;;;;;;;;28.00;60.80;;;;;;5135802;27;19923;-55
2021/06/23 04:20:25;;;;;;;;;;;28.00;60.70;;;;;;5153947;27;20363;-53
2021/06/23 04:22:52;;;;;;;;;;;28.00;60.70;;;;;;5152782;27;19931;-56
2021/06/23 04:25:19;;;;;;;;;;;28.00;60.70;;;;;;5154654;27;20426;-54
2021/06/23 04:27:46;;;;;;;;;;;28.00;60.70;;;;;;5154092;27;20018;-54
2021/06/23 04:30:13;;;;;;;;;;;28.00;60.80;;;;;;5137506;27;19923;-54
2021/06/23 04:32:41;;;;;;;;;;;28.00;60.70;;;;;;5153914;27;19940;-55
2021/06/23 04:35:09;;;;;;;;;;;28.00;60.80;;;;;;5133976;27;20418;-56
2021/06/23 04:37:37;;;;;;;;;;;28.00;60.70;;;;;;5136028;27;19923;-53
2021/06/23 04:40:05;;;;;;;;;;;28.00;60.80;;;;;;5136588;27;19948;-55
2021/06/23 04:42:32;;;;;;;;;;;28.00;60.70;;;;;;5135106;27;19927;-56
2021/06/23 04:44:59;;;;;;;;;;;28.00;60.80;;;;;;5141761;27;19923;-53
2021/06/23 04:47:26;;;;;;;;;;;28.00;60.80;;;;;;5150389;27;19923;-53
2021/06/23 04:49:53;;;;;;;;;;;28.00;60.80;;;;;;5150868;27;20013;-56
2021/06/23 04:52:21;;;;;;;;;;;28.00;60.70;;;;;;5153230;27;19923;-53
2021/06/23 04:54:48;;;;;;;;;;;28.00;60.70;;;;;;5151875;27;20018;-55
2021/06/23 04:57:15;;;;;;;;;;;28.00;60.80;;;;;;5153091;27;19961;-54
2021/06/23 04:59:42;;;;;;;;;;;28.10;60.80;;;;;;5151921;27;19927;-53
2021/06/23 05:02:09;;;;;;;;;;;28.00;60.80;;;;;;5151913;27;19951;-56
2021/06/23 05:04:37;;;;;;;;;;;28.10;60.80;;;;;;5153264;27;20286;-53
2021/06/23 05:07:07;;;;;;;;;;;28.10;60.80;;;;;;5151934;27;19999;-56
2021/06/23 05:09:38;;;;;;;;;;;28.10;60.80;;;;;;5151970;27;19923;-55
2021/06/23 05:12:08;;;;;;;;;;;28.10;60.80;;;;;;5152855;27;19976;-55
2021/06/23 05:14:36;;;;;;;;;;;28.10;60.80;;;;;;5126232;28;20031;-55
2021/06/23 05:17:03;;;;;;;;;;;28.10;60.80;;;;;;5138388;27;19923;-54
2021/06/23 05:19:30;;;;;;;;;;;28.10;60.80;;;;;;5131529;28;20311;-55
2021/06/23 05:22:03;;;;;;;;;;;28.10;60.80;;;;;;5136274;27;19972;-55
2021/06/23 05:24:33;;;;;;;;;;;28.10;60.70;;;;;;5136553;27;20014;-58
2021/06/23 05:27:00;;;;;;;;;;;28.10;60.80;;;;;;5132302;27;19927;-54
2021/06/23 05:29:27;;;;;;;;;;;28.10;60.70;;;;;;5142611;27;19923;-52
2021/06/23 05:31:54;;;;;;;;;;;28.10;60.70;;;;;;5154387;27;20413;-56
2021/06/23 05:34:21;;;;;;;;;;;28.10;60.70;;;;;;5158146;27;19927;-52
2021/06/23 05:36:48;;;;;;;;;;;28.10;60.70;;;;;;5138847;27;19924;-55
2021/06/23 05:39:14;;;;;;;;;;;28.10;60.70;;;;;;5156946;27;19969;-54
2021/06/23 05:41:41;;;;;;;;;;;28.10;60.70;;;;;;5157118;27;20285;-54
2021/06/23 05:44:08;;;;;;;;;;;28.10;60.80;;;;;;5154737;27;20379;-54
2021/06/23 05:46:35;;;;;;;;;;;28.10;60.70;;;;;;5154612;27;19930;-54
2021/06/23 05:49:03;;;;;;;;;;;28.10;60.80;;;;;;5155600;27;19923;-53
2021/06/23 05:51:30;;;;;;;;;;;28.10;60.80;;;;;;5155001;27;19931;-56
2021/06/23 05:53:57;;;;;;;;;;;28.10;60.80;;;;;;5153798;27;19972;-56
2021/06/23 05:56:24;;;;;;;;;;;28.10;60.80;;;;;;5157010;27;20007;-54
2021/06/23 05:58:51;;;;;;;;;;;28.10;60.80;;;;;;5155128;27;19923;-57
2021/06/23 06:01:18;;;;;;;;;;;28.10;60.70;;;;;;5153749;27;20009;-53
2021/06/23 06:03:45;;;;;;;;;;;28.20;60.70;;;;;;5156510;27;19923;-54
2021/06/23 06:06:14;;;;;;;;;;;28.20;60.70;;;;;;5154077;27;20328;-54
2021/06/23 06:08:41;;;;;;;;;;;28.20;60.60;;;;;;5150018;27;19963;-55
2021/06/23 06:11:08;;;;;;;;;;;28.20;60.50;;;;;;5146219;27;19923;-53
2021/06/23 06:13:35;;;;;;;;;;;28.20;60.40;;;;;;5156052;27;20397;-56
2021/06/23 06:16:02;;;;;;;;;;;28.30;60.40;;;;;;5152697;27;19966;-54
2021/06/23 06:18:31;;;;;;;;;;;28.30;60.30;;;;;;5140841;27;19934;-53
2021/06/23 06:20:58;;;;;;;;;;;28.30;60.20;;;;;;5135817;27;19974;-55
2021/06/23 06:23:25;;;;;;;;;;;28.30;60.10;;;;;;5141856;27;20010;-54
2021/06/23 06:25:52;;;;;;;;;;;28.40;60.10;;;;;;5154499;27;19959;-53
2021/06/23 06:28:20;;;;;;;;;;;28.40;60.00;;;;;;5144020;27;20006;-54
2021/06/23 06:30:47;;;;;;;;;;;28.40;60.00;;;;;;5138876;27;19958;-53
2021/06/23 06:33:15;;;;;;;;;;;28.40;59.90;;;;;;5156258;27;19929;-53
2021/06/23 06:35:42;;;;;;;;;;;28.40;59.90;;;;;;5136525;27;19975;-52
2021/06/23 06:38:09;;;;;;;;;;;28.40;59.90;;;;;;5156102;27;19960;-51
2021/06/23 06:40:37;;;;;;;;;;;28.40;59.90;;;;;;5155037;27;19923;-55
2021/06/23 06:43:04;;;;;;;;;;;28.40;59.90;;;;;;5154814;27;19923;-55
2021/06/23 06:45:31;;;;;;;;;;;28.40;59.80;;;;;;5140470;27;20030;-55
2021/06/23 06:47:58;;;;;;;;;;;28.50;59.90;;;;;;5151276;27;19923;-57
2021/06/23 06:50:25;;;;;;;;;;;28.50;59.90;;;;;;5152754;27;19992;-55
2021/06/23 06:52:52;;;;;;;;;;;28.50;59.80;;;;;;5152648;27;19928;-53
2021/06/23 06:55:22;;;;;;;;;;;28.50;59.80;;;;;;5152634;27;20015;-54
2021/06/23 06:57:50;;;;;;;;;;;28.50;59.80;;;;;;5153558;27;19930;-54
2021/06/23 07:00:19;;;;;;;;;;;28.60;59.80;;;;;;5152629;27;19958;-54
2021/06/23 07:02:47;;;;;;;;;;;28.60;59.70;;;;;;5152789;27;19923;-52
2021/06/23 07:05:14;;;;;;;;;;;28.60;59.70;;;;;;5147673;27;19999;-52
2021/06/23 07:07:41;;;;;;;;;;;28.60;59.70;;;;;;5139131;27;20354;-54
2021/06/23 07:10:09;;;;;;;;;;;28.70;59.70;;;;;;5143093;27;19967;-53
2021/06/23 07:12:36;;;;;;;;;;;28.70;59.60;;;;;;5148133;27;19931;-57
2021/06/23 07:15:04;;;;;;;;;;;28.70;59.50;;;;;;5139607;27;19930;-55
2021/06/23 07:17:31;;;;;;;;;;;28.80;59.50;;;;;;5141790;27;19927;-52
2021/06/23 07:19:58;;;;;;;;;;;28.80;59.40;;;;;;5153752;27;20335;-55
2021/06/23 07:22:26;;;;;;;;;;;28.80;59.20;;;;;;5156172;27;20009;-55
2021/06/23 07:24:53;;;;;;;;;;;28.90;59.20;;;;;;5154691;27;20018;-54
2021/06/23 07:27:22;;;;;;;;;;;28.90;59.10;;;;;;5151300;27;19923;-55
2021/06/23 07:29:50;;;;;;;;;;;29.00;59.00;;;;;;5136034;27;19923;-52
2021/06/23 07:32:25;;;;;;;;;;;29.00;58.90;;;;;;5153634;27;20365;-57
2021/06/23 07:37:38;;;;;;;;;;;29.10;58.70;;;;;;5136516;27;20014;-57
2021/06/23 07:40:05;;;;;;;;;;;29.20;58.60;;;;;;5154404;27;19923;-56
2021/06/23 07:42:32;;;;;;;;;;;29.20;58.50;;;;;;5154069;27;19989;-53
2021/06/23 07:45:02;;;;;;;;;;;29.20;58.40;;;;;;5136757;27;19969;-56
2021/06/23 07:47:33;;;;;;;;;;;29.20;58.30;;;;;;5155132;27;19923;-56
2021/06/23 07:50:00;;;;;;;;;;;29.30;58.20;;;;;;5154948;27;20374;-55
2021/06/23 07:55:11;;;;;;;;;;;29.30;58.20;;;;;;5135503;27;19931;-56
2021/06/23 08:11:41;;;;;;;;;;;29.40;58.00;;;;;;5079476;28;19924;-56
2021/06/23 08:14:08;;;;;;;;;;;29.40;57.90;;;;;;5086403;28;19955;-55
2021/06/23 08:16:36;;;;;;;;;;;29.50;58.00;;;;;;5074576;28;19963;-56
2021/06/23 08:19:04;;;;;;;;;;;29.50;57.90;;;;;;5089624;28;19924;-56
2021/06/23 08:21:30;;;;;;;;;;;29.50;57.80;;;;;;5087482;28;20109;-54
2021/06/23 08:23:57;;;;;;;;;;;29.50;57.80;;;;;;5088650;28;20014;-56
2021/06/23 08:26:25;;;;;;;;;;;29.40;57.90;;;;;;5074253;28;19940;-55
2021/06/23 08:28:52;;;;;;;;;;;29.40;58.00;;;;;;5071637;28;19931;-55
2021/06/23 08:31:19;;;;;;;;;;;29.40;58.00;;;;;;5089234;28;19974;-56
2021/06/23 08:33:46;;;;;;;;;;;29.40;58.00;;;;;;5072164;28;20382;-55
2021/06/23 08:36:13;;;;;;;;;;;29.40;58.00;;;;;;5088623;28;19924;-54
2021/06/23 08:38:40;;;;;;;;;;;29.40;58.00;;;;;;5090915;27;19934;-56
2021/06/23 08:41:07;;;;;;;;;;;29.30;58.00;;;;;;5151728;27;19967;-56
2021/06/23 08:43:34;;;;;;;;;;;29.40;58.10;;;;;;5151181;27;19976;-57
2021/06/23 08:46:02;;;;;;;;;;;29.40;58.00;;;;;;5150876;27;19923;-57
2021/06/23 08:48:30;;;;;;;;;;;29.40;58.00;;;;;;5134885;27;19923;-52
2021/06/23 08:51:01;;;;;;;;;;;29.40;57.90;;;;;;5152100;27;19954;-56
2021/06/23 08:53:28;;;;;;;;;;;29.50;58.00;;;;;;5151678;27;19962;-58
2021/06/23 08:55:55;;;;;;;;;;;29.50;57.90;;;;;;5150402;27;19923;-54
2021/06/23 08:58:22;;;;;;;;;;;29.50;57.80;;;;;;5133869;27;19923;-54
2021/06/23 09:00:49;;;;;;;;;;;29.50;57.80;;;;;;5152223;27;19938;-53
2021/06/23 09:03:16;;;;;;;;;;;29.50;57.70;;;;;;5150404;27;19975;-56
2021/06/23 09:05:50;;;;;;;;;;;29.50;57.70;;;;;;5151776;27;19945;-53
2021/06/23 09:08:30;;;;;;;;;;;29.50;57.70;;;;;;5151920;27;19958;-57
2021/06/23 09:10:58;;;;;;;;;;;29.50;57.70;;;;;;5150358;27;20367;-55
2021/06/23 09:13:25;;;;;;;;;;;29.50;57.70;;;;;;5152121;27;19962;-55
2021/06/23 09:15:55;;;;;;;;;;;29.60;57.60;;;;;;5151405;27;19923;-54
2021/06/23 09:18:30;;;;;;;;;;;29.60;57.60;;;;;;5152885;27;20010;-55
2021/06/23 09:20:59;;;;;;;;;;;29.60;57.50;;;;;;5133471;27;20017;-50
2021/06/23 09:23:39;;;;;;;;;;;29.60;57.50;;;;;;5151269;27;20018;-55
2021/06/23 09:26:09;;;;;;;;;;;29.60;57.50;;;;;;5152670;27;19923;-54
2021/06/23 09:28:36;;;;;;;;;;;29.60;57.60;;;;;;5143958;27;20434;-56
2021/06/23 09:31:06;;;;;;;;;;;29.60;57.60;;;;;;5134565;27;19923;-55
2021/06/23 09:33:33;;;;;;;;;;;29.60;57.70;;;;;;5151886;27;19970;-52
2021/06/23 09:36:09;;;;;;;;;;;29.60;57.80;;;;;;5151285;27;19928;-58
2021/06/23 09:38:56;;;;;;;;;;;29.60;57.70;;;;;;5150362;27;19923;-54
2021/06/23 09:41:22;;;;;;;;;;;29.60;57.60;;;;;;5147764;27;19975;-53
2021/06/23 09:44:02;;;;;;;;;;;29.70;57.60;;;;;;5139051;27;20013;-55
2021/06/23 09:46:30;;;;;;;;;;;29.60;57.60;;;;;;5138588;27;19966;-55
2021/06/23 09:49:16;;;;;;;;;;;29.70;57.50;;;;;;5150218;27;19979;-53
2021/06/23 09:51:43;;;;;;;;;;;29.70;57.50;;;;;;5138263;27;19966;-58
2021/06/23 09:54:11;;;;;;;;;;;29.70;57.40;;;;;;5150038;27;19980;-58
2021/06/23 09:57:02;;;;;;;;;;;29.70;58.00;;;;;;5146833;27;19923;-58
2021/06/23 09:59:33;;;;;;;;;;;29.70;57.40;;;;;;5133997;27;19973;-53
2021/06/23 10:02:01;;;;;;;;;;;29.70;57.30;;;;;;5141383;27;20327;-57
2021/06/23 10:04:33;;;;;;;;;;;29.70;57.40;;;;;;5150741;27;20018;-53
2021/06/23 10:07:01;;;;;;;;;;;29.70;57.30;;;;;;5151459;27;19969;-56
2021/06/23 10:09:30;;;;;;;;;;;29.70;57.30;;;;;;5150894;27;20382;-55
2021/06/23 10:12:06;;;;;;;;;;;29.70;57.40;;;;;;5152317;27;19923;-56
2021/06/23 10:14:38;;;;;;;;;;;29.70;57.40;;;;;;5154526;27;20438;-57
2021/06/23 10:17:06;;;;;;;;;;;29.70;57.30;;;;;;5153821;27;20011;-54
2021/06/23 10:19:33;;;;;;;;;;;29.70;57.30;;;;;;5153864;27;19927;-55
2021/06/23 10:22:01;;;;;;;;;;;29.70;57.40;;;;;;5154961;27;19923;-57
2021/06/23 10:24:49;;;;;;;;;;;29.60;57.50;;;;;;5154423;27;19931;-56
2021/06/23 10:27:17;;;;;;;;;;;29.60;57.60;;;;;;5152441;27;19959;-56
2021/06/23 10:29:44;;;;;;;;;;;29.60;57.60;;;;;;5140219;27;19959;-56
2021/06/23 10:32:11;;;;;;;;;;;29.60;57.70;;;;;;5154030;27;20394;-58
2021/06/23 10:34:38;;;;;;;;;;;29.60;57.80;;;;;;5155191;27;19931;-57
2021/06/23 10:37:06;;;;;;;;;;;29.60;57.80;;;;;;5154612;27;19934;-55
2021/06/23 10:39:35;;;;;;;;;;;29.50;57.90;;;;;;5155955;27;20327;-58
2021/06/23 10:42:06;;;;;;;;;;;29.50;57.90;;;;;;5154609;27;20458;-56
2021/06/23 10:44:41;;;;;;;;;;;29.50;57.90;;;;;;5149922;27;19980;-57
2021/06/23 10:47:10;;;;;;;;;;;29.60;57.90;;;;;;5154571;27;20413;-56
2021/06/23 10:49:51;;;;;;;;;;;29.50;57.80;;;;;;5155912;27;19923;-55
2021/06/23 10:52:25;;;;;;;;;;;29.60;57.80;;;;;;5155021;27;19961;-55
2021/06/23 10:54:55;;;;;;;;;;;29.60;57.80;;;;;;5154681;27;20002;-54
2021/06/23 10:57:44;;;;;;;;;;;29.60;57.70;;;;;;5154020;27;19926;-57
2021/06/23 11:00:11;;;;;;;;;;;29.60;57.70;;;;;;5155821;27;20382;-56
2021/06/23 11:02:41;;;;;;;;;;;29.60;57.70;;;;;;5136520;27;20236;-55
2021/06/23 11:05:09;;;;;;;;;;;29.60;57.70;;;;;;5156129;27;20018;-57
2021/06/23 11:07:42;;;;;;;;;;;29.60;57.80;;;;;;5139092;27;19966;-55
2021/06/23 11:10:12;;;;;;;;;;;29.50;57.80;;;;;;5154976;27;19923;-55
2021/06/23 11:12:45;;;;;;;;;;;29.50;57.80;;;;;;5154106;27;19949;-56
2021/06/23 11:15:20;;;;;;;;;;;29.50;57.90;;;;;;5135366;27;19923;-56
2021/06/23 11:17:48;;;;;;;;;;;29.50;57.90;;;;;;5152724;27;19923;-53
2021/06/23 11:20:37;;;;;;;;;;;29.50;58.00;;;;;;5154929;27;19923;-55
2021/06/23 11:23:04;;;;;;;;;;;29.40;58.00;;;;;;5154028;27;20375;-53
2021/06/23 11:25:33;;;;;;;;;;;29.40;58.00;;;;;;5153354;27;20421;-55
2021/06/23 11:28:10;;;;;;;;;;;29.40;58.10;;;;;;5140031;27;19923;-52
2021/06/23 11:30:55;;;;;;;;;;;29.40;58.20;;;;;;5153856;27;19937;-54
2021/06/23 11:33:28;;;;;;;;;;;29.40;58.20;;;;;;5154523;27;20341;-53
2021/06/23 11:36:19;;;;;;;;;;;29.40;58.20;;;;;;5153993;27;19930;-50
2021/06/23 11:38:47;;;;;;;;;;;29.40;58.10;;;;;;5125851;27;20379;-57
2021/06/23 11:41:15;;;;;;;;;;;29.40;58.20;;;;;;5153371;27;20014;-54
2021/06/23 11:43:42;;;;;;;;;;;29.40;58.20;;;;;;5154029;27;19923;-57
2021/06/23 11:46:10;;;;;;;;;;;29.40;58.20;;;;;;5153368;27;19923;-56
2021/06/23 11:48:38;;;;;;;;;;;29.40;58.20;;;;;;5153856;27;19946;-56
2021/06/23 11:51:05;;;;;;;;;;;29.40;58.30;;;;;;5153175;27;19973;-55
2021/06/23 11:53:32;;;;;;;;;;;29.40;58.30;;;;;;5154159;27;19923;-57
2021/06/23 11:55:59;;;;;;;;;;;29.40;58.30;;;;;;5154560;27;20271;-55
2021/06/23 11:58:26;;;;;;;;;;;29.40;58.20;;;;;;5153565;27;20009;-54
2021/06/23 12:00:53;;;;;;;;;;;29.40;58.20;;;;;;5122381;27;20021;-57
2021/06/23 12:03:21;;;;;;;;;;;29.40;58.20;;;;;;5136935;27;20108;-53
2021/06/23 12:05:48;;;;;;;;;;;29.40;58.20;;;;;;5146664;27;19923;-53
2021/06/23 12:08:16;;;;;;;;;;;29.30;58.20;;;;;;5134456;27;20294;-57
2021/06/23 12:10:44;;;;;;;;;;;29.40;58.40;;;;;;5151698;27;19923;-54
2021/06/23 12:13:13;;;;;;;;;;;29.30;58.30;;;;;;5153900;27;19950;-54
2021/06/23 12:15:41;;;;;;;;;;;29.30;58.40;;;;;;5152535;27;19927;-56
2021/06/23 12:18:09;;;;;;;;;;;29.30;58.40;;;;;;5154445;27;20016;-56
2021/06/23 12:20:38;;;;;;;;;;;29.30;58.50;;;;;;5152601;27;19998;-53
2021/06/23 12:23:06;;;;;;;;;;;29.30;58.50;;;;;;5152436;27;19923;-54
2021/06/23 12:25:35;;;;;;;;;;;29.30;58.50;;;;;;5151295;27;19927;-52
2021/06/23 12:28:03;;;;;;;;;;;29.30;58.50;;;;;;5145835;27;20255;-55
2021/06/23 12:30:30;;;;;;;;;;;29.30;58.50;;;;;;5153771;27;20006;-54
2021/06/23 12:32:59;;;;;;;;;;;29.30;58.50;;;;;;5152108;27;19923;-56
2021/06/23 12:35:27;;;;;;;;;;;29.30;58.50;;;;;;5150876;27;20022;-54
2021/06/23 12:37:56;;;;;;;;;;;29.30;58.50;;;;;;5153288;27;19945;-57
2021/06/23 12:40:23;;;;;;;;;;;29.30;58.50;;;;;;5135367;27;19923;-55
2021/06/23 12:42:50;;;;;;;;;;;29.30;58.50;;;;;;5152327;27;20391;-55
2021/06/23 12:45:17;;;;;;;;;;;29.20;58.40;;;;;;5151140;27;20021;-53
2021/06/23 12:47:43;;;;;;;;;;;29.30;58.50;;;;;;5153374;27;19982;-54
2021/06/23 12:50:16;;;;;;;;;;;29.30;58.40;;;;;;5137386;27;19969;-58
2021/06/23 12:52:44;;;;;;;;;;;29.30;58.90;;;;;;5137075;27;20429;-55
2021/06/23 12:55:12;;;;;;;;;;;29.30;58.90;;;;;;5152613;27;19927;-56
2021/06/23 12:57:42;;;;;;;;;;;29.30;58.30;;;;;;5129315;27;20206;-57
2021/06/23 13:00:10;;;;;;;;;;;29.30;58.20;;;;;;5132521;27;20016;-51
2021/06/23 13:02:37;;;;;;;;;;;29.30;58.10;;;;;;5131190;27;19973;-55
2021/06/23 13:05:05;;;;;;;;;;;29.40;58.10;;;;;;5132208;27;19948;-56
2021/06/23 13:07:33;;;;;;;;;;;29.40;58.00;;;;;;5122734;27;20328;-53
2021/06/23 13:10:01;;;;;;;;;;;29.40;58.00;;;;;;5129799;28;19970;-54
2021/06/23 13:12:28;;;;;;;;;;;29.50;58.00;;;;;;5132590;28;19962;-54
2021/06/23 13:14:55;;;;;;;;;;;29.50;57.90;;;;;;5131115;28;20330;-57
2021/06/23 13:17:22;;;;;;;;;;;29.50;57.80;;;;;;5130764;28;20417;-52
2021/06/23 13:19:50;;;;;;;;;;;29.60;57.80;;;;;;5130685;28;19928;-56
2021/06/23 13:22:17;;;;;;;;;;;29.60;57.70;;;;;;5131417;28;19962;-55
2021/06/23 13:24:43;;;;;;;;;;;29.60;57.60;;;;;;5130315;28;20010;-56
2021/06/23 13:27:11;;;;;;;;;;;29.70;57.50;;;;;;5132355;28;19974;-58
2021/06/23 13:29:39;;;;;;;;;;;29.70;57.40;;;;;;5130887;28;19924;-53
2021/06/23 13:32:07;;;;;;;;;;;29.80;57.30;;;;;;5132102;28;20060;-52
2021/06/23 13:34:35;;;;;;;;;;;29.80;57.80;;;;;;5130779;28;19928;-56
2021/06/23 13:37:02;;;;;;;;;;;29.80;57.20;;;;;;5130593;28;19931;-55
2021/06/23 13:39:29;;;;;;;;;;;29.80;57.10;;;;;;5131709;28;20317;-54
2021/06/23 13:41:57;;;;;;;;;;;29.80;57.10;;;;;;5131700;28;19927;-53
2021/06/23 13:44:25;;;;;;;;;;;29.90;57.10;;;;;;5114428;28;19928;-53
2021/06/23 13:46:52;;;;;;;;;;;29.80;57.00;;;;;;5132345;28;19927;-53
2021/06/23 13:49:19;;;;;;;;;;;29.90;57.00;;;;;;5118169;27;19924;-52
2021/06/23 13:51:46;;;;;;;;;;;29.90;56.90;;;;;;5117833;27;20047;-54
2021/06/23 13:54:13;;;;;;;;;;;29.90;56.80;;;;;;5135748;27;19949;-54
2021/06/23 13:56:40;;;;;;;;;;;30.00;56.80;;;;;;5135812;27;19969;-50
2021/06/23 13:59:07;;;;;;;;;;;29.90;56.70;;;;;;5134592;27;19949;-51
2021/06/23 14:01:34;;;;;;;;;;;30.00;56.70;;;;;;5136058;27;19954;-54
2021/06/23 14:04:01;;;;;;;;;;;30.00;56.70;;;;;;5134528;27;19924;-55
2021/06/23 14:06:28;;;;;;;;;;;30.00;56.60;;;;;;5134398;27;19923;-53
2021/06/23 14:08:55;;;;;;;;;;;30.00;56.60;;;;;;5136783;27;19933;-55
2021/06/23 14:11:22;;;;;;;;;;;30.00;56.50;;;;;;5137009;27;20361;-56
2021/06/23 14:13:49;;;;;;;;;;;30.00;56.50;;;;;;5133029;27;19963;-58
2021/06/23 14:16:16;;;;;;;;;;;30.00;56.60;;;;;;5135709;27;20410;-55
2021/06/23 14:18:43;;;;;;;;;;;30.00;56.60;;;;;;5132943;27;19924;-54
2021/06/23 14:21:10;;;;;;;;;;;30.00;56.60;;;;;;5117066;27;20361;-57
2021/06/23 14:23:40;;;;;;;;;;;30.00;56.60;;;;;;5132904;27;19923;-55
2021/06/23 14:26:10;;;;;;;;;;;29.90;56.60;;;;;;5132666;27;19924;-53
2021/06/23 14:28:37;;;;;;;;;;;30.00;56.60;;;;;;5122443;27;20023;-56
2021/06/23 14:31:04;;;;;;;;;;;30.00;56.60;;;;;;5131133;27;19974;-55
2021/06/23 14:33:32;;;;;;;;;;;29.90;56.60;;;;;;5133701;27;19924;-56
2021/06/23 14:36:00;;;;;;;;;;;30.00;56.60;;;;;;5135203;27;19924;-53
2021/06/23 14:38:28;;;;;;;;;;;29.90;56.60;;;;;;5116117;28;19984;-53
2021/06/23 14:40:55;;;;;;;;;;;30.00;56.60;;;;;;5133745;27;19955;-56
2021/06/23 14:43:22;;;;;;;;;;;29.90;56.60;;;;;;5135057;27;20018;-54